Brownsville South Padre Island International Airport Brownsville US
ICAO: KBRO
IATA: BRO
Category: Medium
Scheduled Services: Yes

Elevation: 22 ft
TransAlt. 18000 ft.

Airport Communications:
VALLEY APP/DEP:119.5
ATIS:128.55
CTAF:118.9
GND:121.9
SAN ANGELO RDO:122.3
TWR:118.9
UNICOM:122.95

KBRO Zoom In..

If you have problems with the map follow the link
https://www.worldairports.se/pages/airport.php?
ICAO=KBRO

Runways:

(A) RW 13L length 3000 ft width 75 ft
---- / hdg 128

(B) RW 13R length 7399 ft width 150 ft
ILS 110.30 / hdg 128

(C) RW 17 length 6000 ft width 150 ft
---- / hdg 175

(D) RW 31L length 7399 ft width 150 ft
---- / hdg 308

(E) RW 31R length 3000 ft width 75 ft
---- / hdg 308

(F) RW 35 length 6000 ft width 150 ft
---- / hdg 355

Location; KBRO
Day. 18 / Time. 01.53 Zulu
* Altimeter: 29.85
* Temperature: 18° c. 64.4°f.
* Wind from: 360° Speed 13 kn with Gusts up to 18 kn.
Dewpoint: 16° c.
Visibility: 10 Statute Miles.
Clouds: Overcast 1100 ft.

KBRO 180153Z 36013G18KT 10SM OVC011 18/16 A2985 RMK AO2 PRESRR SLP106 T01780156


Wind From 360°
Speed 13 kn.

 
 
jpsmedia.com for Web Design worldairports.se 2019   terms of use